Time;durP1;ratioP1;P1;durP2;ratioP2;P2;SDS_P1;SDS_P2;PMS_P1;PMS_P2;Temp;Humidity;BMP_temperature;BMP_pressure;BME280_temperature;BME280_humidity;BME280_pressure;Samples;Min_cycle;Max_cycle;Signal;HPM_P1;HPM_P2
2024/02/01 09:38:02;;;;;;;;;;;;;;;;;;4936179;29;19927;-96
2024/02/01 09:40:30;;;;;;;;;;;;;;;;;;4989052;23;19930;-96
2024/02/01 09:42:55;;;;;;;;;;;;;;;;;;4945833;29;19921;-96
2024/02/01 09:45:28;;;;;;;;;;;;;;;;;;4942543;29;19915;-96
2024/02/01 09:47:54;;;;;;;;;;;;;;;;;;4943729;29;20384;-91
2024/02/01 09:50:20;;;;;;;;;;;;;;;;;;4942220;29;19914;-93
2024/02/01 09:52:49;;;;;;;;;;;;;;;;;;4924530;29;19981;-94
2024/02/01 09:55:18;;;;;;;;;;;;;;;;;;4940673;29;19924;-95
2024/02/01 09:57:47;;;;;;;;;;;;;;;;;;4940383;29;19922;-94
2024/02/01 10:00:22;;;;;;;;;;;;;;;;;;4942846;29;20365;-94
2024/02/01 10:02:53;;;;;;;;;;;;;;;;;;4946054;29;19942;-90
2024/02/01 10:05:19;;;;;;;;;;;;;;;;;;5203280;23;20015;-86
2024/02/01 10:07:45;;;;;;;;;;;;;;;;;;4927235;29;19919;-88
2024/02/01 10:10:13;;;;;;;;;;;;;;;;;;4925148;29;19922;-87
2024/02/01 10:12:39;;;;;;;;;;;;;;;;;;4924963;29;20010;-88
2024/02/01 10:15:10;;;;;;;;;;;;;;;;;;4924450;29;19915;-87
2024/02/01 10:17:46;;;;;;;;;;;;;;;;;;4929892;29;19919;-92
2024/02/01 10:20:33;;;;;;;;;;;;;;;;;;4930313;29;19921;-89
2024/02/01 10:23:00;;;;;;;;;;;;;;;;;;4924942;29;20009;-91
2024/02/01 10:25:33;;;;;;;;;;;;;;;;;;4924893;29;19955;-90
2024/02/01 10:28:00;;;;;;;;;;;;;;;;;;4923505;29;20269;-91
2024/02/01 10:30:25;;;;;;;;;;;;;;;;;;4923405;29;19915;-96
2024/02/01 10:32:53;;;;;;;;;;;;;;;;;;4924663;29;19919;-91
2024/02/01 10:35:19;;;;;;;;;;;;;;;;;;4923697;29;19919;-90
2024/02/01 10:37:47;;;;;;;;;;;;;;;;;;4923183;29;20319;-93
2024/02/01 10:40:13;;;;;;;;;;;;;;;;;;4923336;29;19914;-89
2024/02/01 10:42:38;;;;;;;;;;;;;;;;;;4923752;29;19911;-92
2024/02/01 10:45:06;;;;;;;;;;;;;;;;;;4924798;29;19949;-91
2024/02/01 10:47:33;;;;;;;;;;;;;;;;;;4923502;29;19915;-94
2024/02/01 10:49:59;;;;;;;;;;;;;;;;;;4923167;29;20403;-90
2024/02/01 10:52:27;;;;;;;;;;;;;;;;;;4924109;29;19962;-91
2024/02/01 10:54:53;;;;;;;;;;;;;;;;;;4923262;29;20317;-91
2024/02/01 10:57:19;;;;;;;;;;;;;;;;;;4923251;29;20039;-90
2024/02/01 10:59:48;;;;;;;;;;;;;;;;;;4923489;29;19966;-91
2024/02/01 11:02:15;;;;;;;;;;;;;;;;;;4923501;29;19977;-90
2024/02/01 11:04:42;;;;;;;;;;;;;;;;;;4923092;29;19918;-91
2024/02/01 11:07:08;;;;;;;;;;;;;;;;;;4923319;29;20010;-90
2024/02/01 12:31:49;;;;;;;;;;;;;;;;;;5263291;23;19926;-92
2024/02/01 12:34:15;;;;;;;;;;;;;;;;;;4937646;29;19922;-91
2024/02/01 12:36:40;;;;;;;;;;;;;;;;;;4937398;29;19925;-91
2024/02/01 12:39:08;;;;;;;;;;;;;;;;;;4939193;29;19919;-92
2024/02/01 12:41:34;;;;;;;;;;;;;;;;;;4938145;29;19942;-90
2024/02/01 12:44:03;;;;;;;;;;;;;;;;;;4940516;29;20001;-92
2024/02/01 12:46:29;;;;;;;;;;;;;;;;;;4943764;29;19915;-92
2024/02/01 17:35:25;;;;;;;;;;;;;;;;;;5251222;23;19923;-92
2024/02/01 17:37:50;;;;;;;;;;;;;;;;;;4936231;29;19919;-92
2024/02/01 17:40:18;;;;;;;;;;;;;;;;;;4936609;29;20010;-94
2024/02/01 17:42:52;;;;;;;;;;;;;;;;;;4936912;29;19949;-92
2024/02/01 17:45:17;;;;;;;;;;;;;;;;;;4936716;29;19925;-93
2024/02/01 17:47:43;;;;;;;;;;;;;;;;;;4937405;29;19911;-93
2024/02/01 17:50:23;;;;;;;;;;;;;;;;;;4937724;29;19919;-94
2024/02/01 17:52:50;;;;;;;;;;;;;;;;;;4936679;29;19914;-95
2024/02/01 17:55:34;;;;;;;;;;;;;;;;;;4937369;29;19911;-96
2024/02/01 17:58:00;;;;;;;;;;;;;;;;;;4936806;29;19921;-95
2024/02/01 18:00:26;;;;;;;;;;;;;;;;;;4936895;29;19914;-94
2024/02/01 18:02:53;;;;;;;;;;;;;;;;;;4936606;29;19915;-95
2024/02/01 18:05:19;;;;;;;;;;;;;;;;;;4938152;29;19914;-94
2024/02/01 18:07:44;;;;;;;;;;;;;;;;;;4936526;29;19921;-93
2024/02/01 18:10:10;;;;;;;;;;;;;;;;;;4936651;29;20249;-93
2024/02/01 18:12:41;;;;;;;;;;;;;;;;;;4936180;29;20093;-93
2024/02/01 18:15:33;;;;;;;;;;;;;;;;;;4936481;29;19914;-94
2024/02/01 18:17:58;;;;;;;;;;;;;;;;;;4934385;29;19915;-94
2024/02/01 18:20:23;;;;;;;;;;;;;;;;;;4936566;29;19962;-94
2024/02/01 18:22:51;;;;;;;;;;;;;;;;;;4936365;29;19931;-94
2024/02/01 18:25:22;;;;;;;;;;;;;;;;;;4937172;29;19957;-95
2024/02/01 18:27:48;;;;;;;;;;;;;;;;;;4940636;29;19921;-94
2024/02/01 18:30:15;;;;;;;;;;;;;;;;;;4941002;29;19922;-92
2024/02/01 18:32:41;;;;;;;;;;;;;;;;;;4945050;29;19915;-95
2024/02/01 18:35:26;;;;;;;;;;;;;;;;;;4944386;29;19922;-96
2024/02/01 18:37:54;;;;;;;;;;;;;;;;;;4926361;29;19987;-96
2024/02/01 18:40:20;;;;;;;;;;;;;;;;;;4945650;29;19915;-93
2024/02/01 18:42:59;;;;;;;;;;;;;;;;;;4946607;29;19910;-94
2024/02/01 18:45:24;;;;;;;;;;;;;;;;;;4945113;29;19914;-93
2024/02/01 18:47:50;;;;;;;;;;;;;;;;;;4943358;29;19933;-92
2024/02/01 18:50:19;;;;;;;;;;;;;;;;;;4942455;29;20392;-93
2024/02/01 18:52:45;;;;;;;;;;;;;;;;;;4944693;29;19914;-94
2024/02/01 18:55:12;;;;;;;;;;;;;;;;;;4941778;29;19934;-93
2024/02/01 18:57:38;;;;;;;;;;;;;;;;;;4940942;29;20006;-91
2024/02/01 19:00:09;;;;;;;;;;;;;;;;;;4940730;29;19977;-91
2024/02/01 19:02:50;;;;;;;;;;;;;;;;;;4939633;29;20290;-89
2024/02/01 19:05:16;;;;;;;;;;;;;;;;;;4923515;29;20440;-89
2024/02/01 19:07:44;;;;;;;;;;;;;;;;;;4940069;29;20006;-88
2024/02/01 19:10:29;;;;;;;;;;;;;;;;;;4939319;29;19946;-89
2024/02/01 19:12:54;;;;;;;;;;;;;;;;;;4938835;29;20013;-90
2024/02/01 19:15:42;;;;;;;;;;;;;;;;;;4938894;29;19954;-90
2024/02/01 19:18:13;;;;;;;;;;;;;;;;;;4940048;29;19918;-90
2024/02/01 19:20:38;;;;;;;;;;;;;;;;;;4938850;29;19969;-90
2024/02/01 19:23:03;;;;;;;;;;;;;;;;;;4938440;29;19960;-90
2024/02/01 19:25:29;;;;;;;;;;;;;;;;;;4940342;29;19978;-90
2024/02/01 19:27:59;;;;;;;;;;;;;;;;;;4938496;29;20017;-89
2024/02/01 19:30:39;;;;;;;;;;;;;;;;;;4939862;29;20001;-91
2024/02/01 19:33:05;;;;;;;;;;;;;;;;;;4938383;29;19934;-89
2024/02/01 19:35:32;;;;;;;;;;;;;;;;;;4938317;29;19915;-89
2024/02/01 19:38:02;;;;;;;;;;;;;;;;;;4937526;29;19918;-92
2024/02/01 19:40:31;;;;;;;;;;;;;;;;;;4938949;29;19942;-91
2024/02/01 19:42:56;;;;;;;;;;;;;;;;;;4941621;29;19915;-90
2024/02/01 19:45:21;;;;;;;;;;;;;;;;;;4939947;29;19922;-88
2024/02/01 19:47:47;;;;;;;;;;;;;;;;;;4938534;29;19915;-89
2024/02/01 19:50:12;;;;;;;;;;;;;;;;;;4939577;29;20002;-89
2024/02/01 19:52:37;;;;;;;;;;;;;;;;;;4940709;29;20024;-91
2024/02/01 19:55:03;;;;;;;;;;;;;;;;;;4940221;29;19993;-95
2024/02/01 19:57:29;;;;;;;;;;;;;;;;;;4940237;29;19918;-94
2024/02/01 19:59:54;;;;;;;;;;;;;;;;;;4938849;29;19949;-90
2024/02/01 20:02:19;;;;;;;;;;;;;;;;;;4938772;29;20009;-91
2024/02/01 20:04:45;;;;;;;;;;;;;;;;;;4938287;29;20002;-90
2024/02/01 20:07:10;;;;;;;;;;;;;;;;;;4937882;29;19915;-94
2024/02/01 20:09:36;;;;;;;;;;;;;;;;;;4937832;29;19995;-90
2024/02/01 20:12:01;;;;;;;;;;;;;;;;;;4938002;29;19918;-92
2024/02/01 20:14:26;;;;;;;;;;;;;;;;;;4938887;29;20421;-96
2024/02/01 20:16:52;;;;;;;;;;;;;;;;;;4940114;29;20427;-95
2024/02/01 20:19:17;;;;;;;;;;;;;;;;;;4950143;29;20305;-95
2024/02/01 20:21:46;;;;;;;;;;;;;;;;;;4939155;29;20362;-95
2024/02/01 20:24:16;;;;;;;;;;;;;;;;;;4938370;29;19915;-92
2024/02/01 20:26:42;;;;;;;;;;;;;;;;;;4937982;29;19958;-92
2024/02/01 20:29:10;;;;;;;;;;;;;;;;;;4938316;29;20005;-94
2024/02/01 20:31:36;;;;;;;;;;;;;;;;;;4937791;29;19914;-95
2024/02/01 20:34:05;;;;;;;;;;;;;;;;;;4937488;29;19923;-95
2024/02/01 20:36:34;;;;;;;;;;;;;;;;;;4943126;29;19918;-94
2024/02/01 20:39:01;;;;;;;;;;;;;;;;;;4948504;29;19915;-94
2024/02/01 20:41:32;;;;;;;;;;;;;;;;;;4951459;29;20000;-95
2024/02/01 20:43:58;;;;;;;;;;;;;;;;;;4954070;29;19915;-94
2024/02/01 20:46:39;;;;;;;;;;;;;;;;;;4954315;29;19915;-94
2024/02/01 20:49:07;;;;;;;;;;;;;;;;;;4958031;29;19962;-93
2024/02/01 20:52:08;;;;;;;;;;;;;;;;;;4956383;29;19899;-94
2024/02/01 20:54:57;;;;;;;;;;;;;;;;;;4955749;29;19910;-96
2024/02/01 20:57:42;;;;;;;;;;;;;;;;;;4936089;29;19919;-93
2024/02/01 21:00:24;;;;;;;;;;;;;;;;;;4956987;29;19954;-92
2024/02/01 21:03:24;;;;;;;;;;;;;;;;;;4951289;29;19895;-93
2024/02/01 21:05:53;;;;;;;;;;;;;;;;;;4954283;29;19938;-93
2024/02/01 21:08:26;;;;;;;;;;;;;;;;;;4951217;29;19970;-92
2024/02/01 21:10:52;;;;;;;;;;;;;;;;;;4953223;29;19929;-94
2024/02/01 21:13:18;;;;;;;;;;;;;;;;;;4940012;29;19991;-93
2024/02/01 21:15:44;;;;;;;;;;;;;;;;;;4938758;29;19915;-93
2024/02/01 21:18:14;;;;;;;;;;;;;;;;;;4938468;29;19921;-93
2024/02/01 21:20:41;;;;;;;;;;;;;;;;;;4938111;29;19923;-93
2024/02/01 21:23:25;;;;;;;;;;;;;;;;;;4937661;29;19922;-92
2024/02/01 21:26:09;;;;;;;;;;;;;;;;;;4937432;29;19921;-93
2024/02/01 21:28:35;;;;;;;;;;;;;;;;;;4937654;29;19915;-93
2024/02/01 21:31:01;;;;;;;;;;;;;;;;;;4937562;29;19926;-92
2024/02/01 21:33:27;;;;;;;;;;;;;;;;;;4937211;29;19922;-93
2024/02/01 21:35:56;;;;;;;;;;;;;;;;;;4936862;29;20289;-92
2024/02/01 21:38:23;;;;;;;;;;;;;;;;;;4936805;29;19918;-92
2024/02/01 21:40:48;;;;;;;;;;;;;;;;;;4936899;29;19915;-93
2024/02/01 21:43:18;;;;;;;;;;;;;;;;;;4936665;29;20023;-93
2024/02/01 21:45:44;;;;;;;;;;;;;;;;;;4936759;29;19915;-92
2024/02/01 21:48:11;;;;;;;;;;;;;;;;;;4936698;29;19915;-92
2024/02/01 21:50:37;;;;;;;;;;;;;;;;;;4937045;29;19922;-93
2024/02/01 21:53:02;;;;;;;;;;;;;;;;;;4936907;29;19919;-93
2024/02/01 21:55:27;;;;;;;;;;;;;;;;;;4921788;29;19929;-92
2024/02/01 21:57:53;;;;;;;;;;;;;;;;;;4936468;29;19921;-92
2024/02/01 22:00:19;;;;;;;;;;;;;;;;;;4936118;29;19979;-93
2024/02/01 22:02:44;;;;;;;;;;;;;;;;;;4936592;29;19915;-93
2024/02/01 22:05:10;;;;;;;;;;;;;;;;;;4936465;29;19915;-92
2024/02/01 22:07:35;;;;;;;;;;;;;;;;;;4936319;29;19914;-93
2024/02/01 22:10:01;;;;;;;;;;;;;;;;;;4936532;29;19949;-92
2024/02/01 22:12:26;;;;;;;;;;;;;;;;;;4936614;29;20373;-93
2024/02/01 22:14:52;;;;;;;;;;;;;;;;;;4936421;29;19915;-92
2024/02/01 22:17:17;;;;;;;;;;;;;;;;;;4936345;29;19923;-93
2024/02/01 22:19:42;;;;;;;;;;;;;;;;;;4936501;29;19914;-91
2024/02/01 22:22:08;;;;;;;;;;;;;;;;;;4936450;29;19918;-92
2024/02/01 22:24:33;;;;;;;;;;;;;;;;;;4936239;29;19922;-92
2024/02/01 22:27:00;;;;;;;;;;;;;;;;;;4936278;29;20046;-92
2024/02/01 22:29:26;;;;;;;;;;;;;;;;;;4936258;29;19978;-93
2024/02/01 22:31:51;;;;;;;;;;;;;;;;;;4936320;29;19915;-93
2024/02/01 22:34:16;;;;;;;;;;;;;;;;;;4936104;29;19915;-92
2024/02/01 22:36:41;;;;;;;;;;;;;;;;;;4935848;29;19925;-92
2024/02/01 22:39:15;;;;;;;;;;;;;;;;;;4936017;29;19922;-93
2024/02/01 22:41:41;;;;;;;;;;;;;;;;;;4935833;29;19915;-92
2024/02/01 22:44:06;;;;;;;;;;;;;;;;;;4935727;29;19921;-92
2024/02/01 22:46:31;;;;;;;;;;;;;;;;;;4936232;29;20365;-93
2024/02/01 22:48:57;;;;;;;;;;;;;;;;;;4935978;29;19982;-92
2024/02/01 22:51:22;;;;;;;;;;;;;;;;;;4936016;29;20365;-94
2024/02/01 22:53:47;;;;;;;;;;;;;;;;;;4935831;29;19965;-93
2024/02/01 22:56:13;;;;;;;;;;;;;;;;;;4936005;29;20002;-93
2024/02/01 22:58:38;;;;;;;;;;;;;;;;;;4935776;29;20385;-92
2024/02/01 23:01:03;;;;;;;;;;;;;;;;;;4935577;29;20384;-92
2024/02/01 23:03:29;;;;;;;;;;;;;;;;;;4935701;29;20361;-92
2024/02/01 23:05:55;;;;;;;;;;;;;;;;;;4936951;29;20369;-91
2024/02/01 23:08:20;;;;;;;;;;;;;;;;;;4935702;29;19918;-92
2024/02/01 23:10:45;;;;;;;;;;;;;;;;;;4935805;29;19937;-91
2024/02/01 23:13:11;;;;;;;;;;;;;;;;;;4939194;29;19919;-92
2024/02/01 23:15:36;;;;;;;;;;;;;;;;;;4939242;29;19917;-92
2024/02/01 23:18:02;;;;;;;;;;;;;;;;;;4939257;29;19943;-92
2024/02/01 23:20:27;;;;;;;;;;;;;;;;;;4939037;29;19921;-93
2024/02/01 23:22:53;;;;;;;;;;;;;;;;;;4938758;29;19914;-93
2024/02/01 23:25:18;;;;;;;;;;;;;;;;;;4939066;29;19915;-92
2024/02/01 23:27:43;;;;;;;;;;;;;;;;;;4939949;29;19914;-91
2024/02/01 23:30:09;;;;;;;;;;;;;;;;;;4938883;29;19915;-92
2024/02/01 23:32:34;;;;;;;;;;;;;;;;;;4938782;29;19914;-90
2024/02/01 23:35:00;;;;;;;;;;;;;;;;;;4938983;29;20369;-91
